createdAt,value
2019-05-29T00:00:38.457Z,100799.25
2019-05-29T00:05:43.959Z,100790.39
2019-05-29T00:10:49.255Z,100807.26
2019-05-29T00:15:54.516Z,100810.25
2019-05-29T00:20:59.734Z,100811.05
2019-05-29T00:26:06.328Z,100819.41
2019-05-29T00:31:12.259Z,100823.91
2019-05-29T00:36:17.606Z,100822.61
2019-05-29T00:41:22.999Z,100832.24
2019-05-29T00:46:28.247Z,100838.88
2019-05-29T00:51:33.478Z,100838.20
2019-05-29T00:56:38.982Z,100835.62
2019-05-29T01:01:44.341Z,100842.58
2019-05-29T01:06:49.937Z,100851.27
2019-05-29T01:11:55.367Z,100863.05
2019-05-29T01:17:00.609Z,100870.19
2019-05-29T01:22:06.187Z,100880.11
2019-05-29T01:27:12.596Z,100869.30
2019-05-29T01:32:17.930Z,100885.71
2019-05-29T01:37:24.280Z,100895.87
2019-05-29T01:42:29.867Z,100908.27
2019-05-29T01:47:35.198Z,100902.95
2019-05-29T01:52:40.388Z,100907.25
2019-05-29T01:57:45.742Z,100911.63
2019-05-29T02:02:51.210Z,100916.88
2019-05-29T02:07:56.458Z,100916.98
2019-05-29T02:13:01.612Z,100921.92
2019-05-29T02:18:06.806Z,100922.78
2019-05-29T02:23:12.263Z,100936.09
2019-05-29T02:28:18.818Z,100941.13
2019-05-29T02:33:26.167Z,100946.72
2019-05-29T02:38:31.377Z,100951.38
2019-05-29T02:43:36.788Z,100958.72
2019-05-29T02:48:42.165Z,100972.19
2019-05-29T02:53:47.376Z,100987.73
2019-05-29T02:58:52.544Z,100992.09
2019-05-29T03:03:57.686Z,100999.73
2019-05-29T03:09:05.007Z,101001.41
2019-05-29T03:14:10.278Z,101012.30
2019-05-29T03:19:15.636Z,101018.30
2019-05-29T03:24:21.041Z,101038.02
2019-05-29T03:29:28.031Z,101041.18
2019-05-29T03:34:39.196Z,101046.23
2019-05-29T03:39:41.525Z,101041.94
2019-05-29T03:44:46.704Z,101051.52
2019-05-29T03:49:52.028Z,101061.78
2019-05-29T03:54:57.159Z,101072.38
2019-05-29T04:00:02.318Z,101087.30
2019-05-29T04:05:09.722Z,101092.36
2019-05-29T04:10:16.808Z,101093.49
2019-05-29T04:15:22.109Z,101105.81
2019-05-29T04:20:27.595Z,101118.30
2019-05-29T04:25:39.587Z,101126.45
2019-05-29T04:30:42.892Z,101143.97
2019-05-29T04:35:48.215Z,101145.38
2019-05-29T04:40:53.566Z,101151.34
2019-05-29T04:45:58.863Z,101160.55
2019-05-29T04:51:04.994Z,101177.16
2019-05-29T04:56:10.508Z,101180.33
2019-05-29T05:01:15.970Z,101194.03
2019-05-29T05:06:21.286Z,101191.83
2019-05-29T05:11:26.440Z,101200.31
2019-05-29T05:16:31.713Z,101204.06
2019-05-29T05:21:38.231Z,101207.94
2019-05-29T05:26:43.591Z,101217.56
2019-05-29T05:31:48.926Z,101219.66
2019-05-29T05:36:54.218Z,101236.29
2019-05-29T05:41:59.767Z,101235.40
2019-05-29T05:47:05.325Z,101253.54
2019-05-29T05:52:10.687Z,101255.19
2019-05-29T05:57:15.959Z,101265.64
2019-05-29T06:02:21.251Z,101268.49
2019-05-29T06:07:26.811Z,101273.30
2019-05-29T06:12:32.319Z,101288.53
2019-05-29T06:17:38.597Z,101283.75
2019-05-29T06:22:43.990Z,101288.88
2019-05-29T06:27:49.262Z,101294.46
2019-05-29T06:32:54.461Z,101300.83
2019-05-29T06:37:59.829Z,101303.52
2019-05-29T06:43:05.703Z,101311.36
2019-05-29T06:48:14.033Z,101321.53
2019-05-29T06:53:19.325Z,101323.58
2019-05-29T06:58:24.554Z,101323.19
2019-05-29T07:03:30.049Z,101328.33
2019-05-29T07:08:40.003Z,101341.58
2019-05-29T07:24:11.720Z,101358.69
2019-05-29T07:29:16.992Z,101366.95
2019-05-29T07:34:23.194Z,101374.42
2019-05-29T07:39:28.411Z,101391.95
2019-05-29T07:44:33.898Z,101382.45
2019-05-29T07:49:43.019Z,101394.13
2019-05-29T07:54:47.879Z,101397.04
2019-05-29T07:59:53.531Z,101407.63
2019-05-29T08:04:58.887Z,101421.28
2019-05-29T08:10:06.292Z,101418.39
2019-05-29T08:15:12.746Z,101427.86
2019-05-29T08:20:18.354Z,101430.88
2019-05-29T08:25:23.700Z,101436.98
2019-05-29T08:30:29.067Z,101446.43
2019-05-29T08:35:34.246Z,101449.05
2019-05-29T08:40:39.677Z,101456.55
2019-05-29T08:45:45.524Z,101463.69
2019-05-29T08:50:52.091Z,101474.16
2019-05-29T08:55:57.462Z,101484.77
2019-05-29T09:01:02.848Z,101483.00
2019-05-29T09:06:10.389Z,101503.24
2019-05-29T09:11:15.414Z,101509.98
2019-05-29T09:16:20.986Z,101508.25
2019-05-29T09:21:27.885Z,101508.41
2019-05-29T09:26:33.144Z,101533.16
2019-05-29T09:31:38.227Z,101540.48
2019-05-29T09:36:43.732Z,101539.95
2019-05-29T09:41:48.830Z,101549.19
2019-05-29T09:46:54.134Z,101543.66
2019-05-29T09:51:59.960Z,101545.92
2019-05-29T09:57:05.511Z,101552.72
2019-05-29T10:02:10.767Z,101569.57
2019-05-29T10:07:16.104Z,101573.73
2019-05-29T10:12:21.354Z,101582.89
2019-05-29T10:17:26.479Z,101597.93
2019-05-29T10:22:31.877Z,101603.32
2019-05-29T10:27:37.284Z,101601.50
2019-05-29T10:32:43.134Z,101617.38
2019-05-29T10:37:50.707Z,101618.62
2019-05-29T10:42:56.116Z,101613.26
2019-05-29T10:48:01.315Z,101630.68
2019-05-29T10:53:06.863Z,101647.91
2019-05-29T10:58:13.142Z,101635.41
2019-05-29T11:03:18.802Z,101652.74
2019-05-29T11:08:24.167Z,101657.70
2019-05-29T11:13:29.344Z,101662.70
2019-05-29T11:18:34.819Z,101671.28
2019-05-29T11:23:40.083Z,101684.28
2019-05-29T11:28:45.139Z,101675.70
2019-05-29T11:33:50.761Z,101686.21
2019-05-29T11:38:56.979Z,101671.27
2019-05-29T11:44:03.967Z,101666.71
2019-05-29T11:49:09.225Z,101681.69
2019-05-29T11:54:14.367Z,101689.52
2019-05-29T11:59:19.587Z,101693.69
2019-05-29T12:04:26.855Z,101705.81
2019-05-29T12:09:33.594Z,101699.89
2019-05-29T12:14:58.070Z,101708.27
2019-05-29T12:19:45.685Z,101708.07
2019-05-29T12:24:50.763Z,101712.41
2019-05-29T12:29:56.658Z,101709.62
2019-05-29T12:35:03.140Z,101727.58
2019-05-29T12:40:12.015Z,101735.97
2019-05-29T12:45:17.698Z,101743.27
2019-05-29T12:50:23.082Z,101736.66
2019-05-29T12:55:28.381Z,101743.30
2019-05-29T13:00:33.876Z,101741.69
2019-05-29T13:05:39.060Z,101740.11
2019-05-29T13:10:44.172Z,101747.12
2019-05-29T13:15:49.509Z,101739.20
2019-05-29T13:20:55.107Z,101738.91
2019-05-29T13:26:01.802Z,101742.63
2019-05-29T13:31:06.990Z,101746.34
2019-05-29T13:36:12.217Z,101747.30
2019-05-29T13:41:17.445Z,101763.73
2019-05-29T13:46:22.824Z,101769.41
2019-05-29T13:51:28.546Z,101771.27
2019-05-29T13:56:33.822Z,101773.90
2019-05-29T14:01:39.008Z,101782.28
2019-05-29T14:06:44.454Z,101790.73
2019-05-29T14:11:49.918Z,101788.69
2019-05-29T14:16:55.274Z,101798.70
2019-05-29T14:22:01.140Z,101798.49
2019-05-29T14:27:08.014Z,101797.30
2019-05-29T14:32:13.478Z,101804.41
2019-05-29T14:37:19.166Z,101807.39
2019-05-29T14:42:24.672Z,101826.10
2019-05-29T14:47:30.092Z,101821.72
2019-05-29T14:52:35.559Z,101828.78
2019-05-29T14:57:40.936Z,101836.39
2019-05-29T15:02:46.109Z,101828.59
2019-05-29T15:07:51.528Z,101839.65
2019-05-29T15:12:58.228Z,101837.45
2019-05-29T15:18:04.909Z,101846.38
2019-05-29T15:23:11.519Z,101856.03
2019-05-29T15:28:18.007Z,101855.23
2019-05-29T15:33:24.507Z,101844.94
2019-05-29T15:38:29.887Z,101864.92
2019-05-29T15:43:35.112Z,101868.23
2019-05-29T15:48:40.438Z,101867.19
2019-05-29T15:53:45.660Z,101867.15
2019-05-29T15:58:51.035Z,101885.61
2019-05-29T16:03:56.427Z,101884.97
2019-05-29T16:09:01.953Z,101896.20
2019-05-29T16:14:08.921Z,101888.07
2019-05-29T16:19:14.179Z,101900.48
2019-05-29T16:24:19.353Z,101898.76
2019-05-29T16:29:24.623Z,101906.12
2019-05-29T16:34:29.861Z,101908.44
2019-05-29T16:39:35.372Z,101910.28
2019-05-29T16:44:40.824Z,101921.51
2019-05-29T16:49:46.345Z,101929.88
2019-05-29T16:54:51.878Z,101939.37
2019-05-29T16:59:57.325Z,101942.91
2019-05-29T17:05:02.582Z,101958.89
2019-05-29T17:10:10.085Z,101957.41
2019-05-29T17:15:17.129Z,101967.19
2019-05-29T17:20:25.457Z,101967.19
2019-05-29T17:25:30.598Z,101985.55
2019-05-29T17:30:36.015Z,101989.45
2019-05-29T17:35:41.577Z,101995.95
2019-05-29T17:40:46.820Z,102001.73
2019-05-29T17:45:52.319Z,102006.88
2019-05-29T17:50:57.784Z,102020.85
2019-05-29T17:56:03.322Z,102027.94
2019-05-29T18:01:08.665Z,102032.42
2019-05-29T18:06:13.900Z,102037.48
2019-05-29T18:11:19.531Z,102029.05
2019-05-29T18:16:25.614Z,102036.97
2019-05-29T18:21:31.301Z,102041.98
2019-05-29T18:26:46.839Z,102046.38
2019-05-29T18:31:43.906Z,102051.82
2019-05-29T18:36:49.605Z,102053.70
2019-05-29T18:41:54.720Z,102068.58
2019-05-29T18:47:00.197Z,102076.29
2019-05-29T18:52:05.420Z,102080.23
2019-05-29T18:57:15.796Z,102084.86
2019-05-29T19:02:18.220Z,102089.32
2019-05-29T19:07:23.872Z,102105.95
2019-05-29T19:12:30.080Z,102113.23
2019-05-29T19:17:35.625Z,102111.58
2019-05-29T19:22:41.118Z,102126.34
2019-05-29T19:27:47.992Z,102132.01
2019-05-29T19:32:53.588Z,102129.21
2019-05-29T19:37:59.026Z,102136.92
2019-05-29T19:43:04.595Z,102141.16
2019-05-29T19:48:11.587Z,102156.04
2019-05-29T19:53:17.052Z,102156.42
2019-05-29T19:58:22.588Z,102161.25
2019-05-29T20:03:28.335Z,102166.67
2019-05-29T20:08:37.322Z,102167.86
2019-05-29T20:13:43.710Z,102176.25
2019-05-29T20:18:48.942Z,102192.41
2019-05-29T20:23:54.819Z,102196.58
2019-05-29T20:29:00.148Z,102193.48
2019-05-29T20:34:05.403Z,102197.41
2019-05-29T20:39:10.709Z,102204.27
2019-05-29T20:44:16.116Z,102197.13
2019-05-29T20:49:21.384Z,102209.95
2019-05-29T20:54:26.666Z,102212.27
2019-05-29T20:59:32.324Z,102207.42
2019-05-29T21:04:38.512Z,102206.56
2019-05-29T21:09:44.076Z,102217.20
2019-05-29T21:14:49.469Z,102220.00
2019-05-29T21:19:54.789Z,102233.77
2019-05-29T21:25:06.630Z,102232.56
2019-05-29T21:30:08.455Z,102236.41
2019-05-29T21:35:13.662Z,102240.89
2019-05-29T21:40:18.958Z,102239.59
2019-05-29T21:45:24.393Z,102247.14
2019-05-29T21:50:31.305Z,102252.69
2019-05-29T21:55:37.531Z,102249.75
2019-05-29T22:00:52.250Z,102247.36
2019-05-29T22:05:59.292Z,102262.67
2019-05-29T22:11:04.768Z,102257.02
2019-05-29T22:16:10.057Z,102252.09
2019-05-29T22:21:15.354Z,102264.70
2019-05-29T22:26:20.739Z,102264.54
2019-05-29T22:31:26.132Z,102259.41
2019-05-29T22:36:31.658Z,102263.17
2019-05-29T22:41:37.110Z,102266.82
2019-05-29T22:46:42.257Z,102262.12
2019-05-29T22:51:47.892Z,102256.34
2019-05-29T22:56:53.970Z,102265.02
2019-05-29T23:02:00.386Z,102260.30
2019-05-29T23:07:06.061Z,102267.80
2019-05-29T23:12:11.405Z,102270.64
2019-05-29T23:17:16.768Z,102270.97
2019-05-29T23:22:24.454Z,102273.78
2019-05-29T23:27:29.236Z,102273.78
2019-05-29T23:32:34.376Z,102269.79
2019-05-29T23:37:39.575Z,102270.44
2019-05-29T23:42:44.978Z,102264.50
2019-05-29T23:47:50.296Z,102274.37
2019-05-29T23:52:55.683Z,102274.37
2019-05-29T23:58:01.976Z,102281.19
